CNT weather

Crows Nest Helipad
Crows Nest, Queensland, Australia

Public forecast

Using degrees Celsius for public forecast. Weather courtesy of forecast.io.

METAR (pilot weather report)

Closest report is Oakey Airport, 19.4 nm (35.9 km) WSW. Retrieved 2019/02/19 17:00 UTC (47 minutes ago):

YBOK 191700Z AUTO 06010KT 9999 // NCD 22/19 Q1007

TAF (pilot weather forecast)

Forecast is more than 6 hours old.

Closest forecast is RAAF Base Amberley, 41.5 nm (76.8 km) ESE. Retrieved 2019/02/19 06:00 UTC (12 hours ago):

TAF YAMB 190533Z 1906/1924 06015KT CAVOK FM191000 09008KT 9999 FEW020 FM191500 VRB03KT 9999 SCT020